sensor_id;sensor_type;location;lat;lon;timestamp;pressure;altitude;pressure_sealevel;temperature
73894;BMP280;62227;50.534;12.784;2022-08-01T00:03:55;96399.84;;;17.03
73894;BMP280;62227;50.534;12.784;2022-08-01T00:09:15;96382.72;;;16.88
73894;BMP280;62227;50.534;12.784;2022-08-01T00:14:34;96385.16;;;16.70
73894;BMP280;62227;50.534;12.784;2022-08-01T00:19:54;96384.69;;;16.59
73894;BMP280;62227;50.534;12.784;2022-08-01T00:25:13;96387.31;;;16.44
73894;BMP280;62227;50.534;12.784;2022-08-01T00:30:34;96379.56;;;16.27
73894;BMP280;62227;50.534;12.784;2022-08-01T00:35:53;96377.31;;;16.18
73894;BMP280;62227;50.534;12.784;2022-08-01T00:41:13;96371.50;;;16.14
73894;BMP280;62227;50.534;12.784;2022-08-01T00:46:33;96375.97;;;16.04
73894;BMP280;62227;50.534;12.784;2022-08-01T00:51:52;96363.84;;;16.05
73894;BMP280;62227;50.534;12.784;2022-08-01T00:57:11;96357.84;;;16.06
73894;BMP280;62227;50.534;12.784;2022-08-01T01:02:32;96360.56;;;16.06
73894;BMP280;62227;50.534;12.784;2022-08-01T01:08:04;96362.03;;;16.07
73894;BMP280;62227;50.534;12.784;2022-08-01T01:13:43;96359.91;;;16.13
73894;BMP280;62227;50.534;12.784;2022-08-01T01:19:03;96356.47;;;16.13
73894;BMP280;62227;50.534;12.784;2022-08-01T01:24:39;96344.34;;;16.14
73894;BMP280;62227;50.534;12.784;2022-08-01T01:30:02;96352.88;;;16.18
73894;BMP280;62227;50.534;12.784;2022-08-01T01:35:26;96363.22;;;16.19
73894;BMP280;62227;50.534;12.784;2022-08-01T01:40:47;96354.56;;;16.21
73894;BMP280;62227;50.534;12.784;2022-08-01T01:46:09;96346.81;;;16.25
73894;BMP280;62227;50.534;12.784;2022-08-01T01:51:30;96340.50;;;16.30
73894;BMP280;62227;50.534;12.784;2022-08-01T01:56:51;96348.13;;;16.32
73894;BMP280;62227;50.534;12.784;2022-08-01T02:02:11;96349.22;;;16.36
73894;BMP280;62227;50.534;12.784;2022-08-01T02:07:32;96344.50;;;16.37
73894;BMP280;62227;50.534;12.784;2022-08-01T02:12:52;96347.78;;;16.35
73894;BMP280;62227;50.534;12.784;2022-08-01T02:18:12;96340.22;;;16.41
73894;BMP280;62227;50.534;12.784;2022-08-01T02:23:34;96351.06;;;16.41
73894;BMP280;62227;50.534;12.784;2022-08-01T02:28:56;96354.38;;;16.47
73894;BMP280;62227;50.534;12.784;2022-08-01T02:34:18;96353.50;;;16.52
73894;BMP280;62227;50.534;12.784;2022-08-01T02:39:39;96349.13;;;16.49
73894;BMP280;62227;50.534;12.784;2022-08-01T02:44:59;96347.13;;;16.50
73894;BMP280;62227;50.534;12.784;2022-08-01T02:50:20;96366.03;;;16.55
73894;BMP280;62227;50.534;12.784;2022-08-01T02:55:41;96363.78;;;16.46
73894;BMP280;62227;50.534;12.784;2022-08-01T03:01:04;96370.88;;;16.49
73894;BMP280;62227;50.534;12.784;2022-08-01T03:06:24;96375.38;;;16.47
73894;BMP280;62227;50.534;12.784;2022-08-01T03:11:46;96372.09;;;16.41
73894;BMP280;62227;50.534;12.784;2022-08-01T03:17:07;96380.66;;;16.24
73894;BMP280;62227;50.534;12.784;2022-08-01T03:22:29;96386.84;;;16.32
73894;BMP280;62227;50.534;12.784;2022-08-01T03:27:54;96391.03;;;16.33
73894;BMP280;62227;50.534;12.784;2022-08-01T03:33:15;96396.94;;;16.24
73894;BMP280;62227;50.534;12.784;2022-08-01T03:38:35;96399.66;;;16.24
73894;BMP280;62227;50.534;12.784;2022-08-01T03:44:02;96397.44;;;16.15
73894;BMP280;62227;50.534;12.784;2022-08-01T03:49:30;96398.19;;;16.02
73894;BMP280;62227;50.534;12.784;2022-08-01T03:54:51;96398.31;;;15.97
73894;BMP280;62227;50.534;12.784;2022-08-01T04:00:11;96405.69;;;15.89
73894;BMP280;62227;50.534;12.784;2022-08-01T04:05:31;96414.28;;;16.00
73894;BMP280;62227;50.534;12.784;2022-08-01T04:10:50;96414.56;;;16.10
73894;BMP280;62227;50.534;12.784;2022-08-01T04:16:10;96422.97;;;16.40
